createdAt,value
2019-04-27T00:01:51.883Z,99730.90
2019-04-27T00:04:40.009Z,99729.19
2019-04-27T00:07:33.881Z,99725.89
2019-04-27T00:10:09.643Z,99724.76
2019-04-27T00:12:38.157Z,99727.00
2019-04-27T00:15:08.461Z,99726.52
2019-04-27T00:18:03.671Z,99724.95
2019-04-27T00:20:57.612Z,99725.09
2019-04-27T00:23:26.526Z,99722.70
2019-04-27T00:25:55.124Z,99720.08
2019-04-27T00:28:23.730Z,99725.31
2019-04-27T00:30:53.160Z,99724.97
2019-04-27T00:33:23.443Z,99725.05
2019-04-27T00:36:03.631Z,99722.06
2019-04-27T00:38:59.265Z,99720.64
2019-04-27T00:41:27.869Z,99714.58
2019-04-27T00:43:56.458Z,99713.67
2019-04-27T00:46:24.959Z,99711.14
2019-04-27T00:48:53.542Z,99703.33
2019-04-27T00:51:23.140Z,99707.72
2019-04-27T00:53:53.573Z,99708.80
2019-04-27T00:56:50.918Z,99714.78
2019-04-27T00:59:38.997Z,99713.38
2019-04-27T01:02:36.792Z,99717.09
2019-04-27T01:05:10.391Z,99710.97
2019-04-27T01:07:39.082Z,99715.86
2019-04-27T01:10:08.300Z,99706.47
2019-04-27T01:12:36.806Z,99713.04
2019-04-27T01:15:05.811Z,99711.15
2019-04-27T01:17:34.301Z,99707.28
2019-04-27T01:20:03.258Z,99709.59
2019-04-27T01:22:31.851Z,99708.62
2019-04-27T01:25:00.452Z,99704.91
2019-04-27T01:27:42.258Z,99708.19
2019-04-27T01:30:21.383Z,99704.91
2019-04-27T01:32:49.984Z,99703.67
2019-04-27T01:35:18.795Z,99701.41
2019-04-27T01:37:48.752Z,99696.25
2019-04-27T01:40:17.298Z,99699.26
2019-04-27T01:42:45.887Z,99707.45
2019-04-27T01:45:14.581Z,99703.61
2019-04-27T01:47:43.293Z,99701.88
2019-04-27T01:50:12.055Z,99701.77
2019-04-27T01:52:40.743Z,99697.55
2019-04-27T01:55:09.427Z,99701.59
2019-04-27T01:57:38.653Z,99697.16
2019-04-27T02:00:29.482Z,99701.41
2019-04-27T02:03:00.160Z,99697.82
2019-04-27T02:05:36.898Z,99693.58
2019-04-27T02:08:05.789Z,99683.94
2019-04-27T02:10:34.381Z,99695.94
2019-04-27T02:13:02.867Z,99693.66
2019-04-27T02:15:31.558Z,99689.61
2019-04-27T02:18:00.145Z,99683.86
2019-04-27T02:20:30.139Z,99680.13
2019-04-27T02:22:58.908Z,99674.78
2019-04-27T02:25:29.360Z,99677.72
2019-04-27T02:28:04.034Z,99681.22
2019-04-27T02:31:02.069Z,99676.14
2019-04-27T02:33:36.975Z,99677.45
2019-04-27T02:36:05.563Z,99669.33
2019-04-27T02:38:34.277Z,99669.44
2019-04-27T02:41:03.438Z,99666.67
2019-04-27T02:43:50.000Z,99673.58
2019-04-27T02:46:20.049Z,99674.20
2019-04-27T02:48:59.353Z,99675.18
2019-04-27T02:51:27.360Z,99677.59
2019-04-27T02:53:56.779Z,99674.77
2019-04-27T02:56:25.389Z,99671.80
2019-04-27T02:58:54.047Z,99662.56
2019-04-27T03:01:24.138Z,99671.83
2019-04-27T03:03:52.834Z,99669.66
2019-04-27T03:06:21.557Z,99674.19
2019-04-27T03:08:53.844Z,99673.13
2019-04-27T03:11:23.553Z,99673.52
2019-04-27T03:14:28.376Z,99677.52
2019-04-27T03:17:00.345Z,99673.00
2019-04-27T03:19:42.201Z,99675.66
2019-04-27T03:22:19.703Z,99672.27
2019-04-27T03:25:06.477Z,99670.71
2019-04-27T03:27:37.207Z,99669.64
2019-04-27T03:30:06.438Z,99661.25
2019-04-27T03:32:35.146Z,99658.72
2019-04-27T03:35:04.120Z,99656.91
2019-04-27T03:37:32.906Z,99662.41
2019-04-27T03:40:01.619Z,99654.30
2019-04-27T03:42:31.538Z,99662.56
2019-04-27T03:45:00.667Z,99655.59
2019-04-27T03:47:30.715Z,99668.07
2019-04-27T03:50:00.226Z,99662.48
2019-04-27T03:52:35.704Z,99665.20
2019-04-27T03:55:19.481Z,99669.75
2019-04-27T03:58:00.076Z,99669.06
2019-04-27T04:00:29.987Z,99661.79
2019-04-27T04:03:00.514Z,99664.39
2019-04-27T04:05:30.115Z,99665.19
2019-04-27T04:08:00.426Z,99653.83
2019-04-27T04:10:31.164Z,99656.44
2019-04-27T04:13:04.856Z,99657.60
2019-04-27T04:15:52.849Z,99660.66
2019-04-27T04:18:22.330Z,99661.79
2019-04-27T04:20:50.836Z,99660.52
2019-04-27T04:23:20.333Z,99668.75
2019-04-27T04:25:50.097Z,99671.21
2019-04-27T04:28:19.857Z,99673.08
2019-04-27T04:30:50.092Z,99669.12
2019-04-27T04:33:20.633Z,99673.75
2019-04-27T04:35:49.923Z,99670.40
2019-04-27T04:38:20.543Z,99665.05
2019-04-27T04:40:56.213Z,99654.84
2019-04-27T04:43:33.944Z,99658.27
2019-04-27T04:46:22.918Z,99659.84
2019-04-27T04:48:51.952Z,99663.36
2019-04-27T04:51:20.533Z,99659.69
2019-04-27T04:53:51.735Z,99663.19
2019-04-27T04:56:19.832Z,99662.92
2019-04-27T04:58:49.747Z,99662.90
2019-04-27T05:01:19.626Z,99655.98
2019-04-27T05:03:48.873Z,99659.38
2019-04-27T05:06:18.943Z,99657.11
2019-04-27T05:08:49.370Z,99658.34
2019-04-27T05:11:19.595Z,99657.75
2019-04-27T05:13:49.405Z,99655.49
2019-04-27T05:16:18.950Z,99662.44
2019-04-27T05:18:49.409Z,99660.09
2019-04-27T05:21:24.096Z,99666.13
2019-04-27T05:23:52.686Z,99665.67
2019-04-27T05:26:21.313Z,99667.75
2019-04-27T05:28:49.804Z,99662.47
2019-04-27T05:31:19.463Z,99665.30
2019-04-27T05:33:49.068Z,99663.40
2019-04-27T05:36:19.290Z,99660.66
2019-04-27T05:38:49.710Z,99666.41
2019-04-27T05:41:18.846Z,99661.77
2019-04-27T05:44:07.543Z,99654.94
2019-04-27T05:47:05.362Z,99656.15
2019-04-27T05:49:41.121Z,99646.12
2019-04-27T05:52:29.037Z,99647.72
2019-04-27T05:54:59.007Z,99643.52
2019-04-27T05:57:31.002Z,99643.33
2019-04-27T06:00:01.883Z,99639.09
2019-04-27T06:02:30.311Z,99639.05
2019-04-27T06:05:00.147Z,99642.94
2019-04-27T06:07:29.646Z,99640.97
2019-04-27T06:09:59.811Z,99646.94
2019-04-27T06:12:29.630Z,99650.31
2019-04-27T06:14:59.861Z,99648.31
2019-04-27T06:17:29.928Z,99646.53
2019-04-27T06:19:59.591Z,99642.08
2019-04-27T06:22:29.219Z,99639.16
2019-04-27T06:25:00.156Z,99640.28
2019-04-27T06:27:30.812Z,99642.87
2019-04-27T06:29:59.408Z,99644.23
2019-04-27T06:32:29.556Z,99646.81
2019-04-27T06:34:59.141Z,99637.16
2019-04-27T06:37:29.318Z,99637.03
2019-04-27T06:39:59.744Z,99632.32
2019-04-27T06:42:29.698Z,99630.47
2019-04-27T06:44:59.945Z,99626.30
2019-04-27T06:47:29.604Z,99628.15
2019-04-27T06:49:58.800Z,99625.69
2019-04-27T06:52:29.204Z,99621.98
2019-04-27T06:54:58.013Z,99622.19
2019-04-27T06:57:26.696Z,99621.35
2019-04-27T06:59:55.285Z,99613.59
2019-04-27T07:02:23.886Z,99608.44
2019-04-27T07:04:52.509Z,99613.36
2019-04-27T07:07:22.634Z,99608.03
2019-04-27T07:09:53.052Z,99603.31
2019-04-27T07:12:22.095Z,99602.42
2019-04-27T07:14:54.565Z,99602.34
2019-04-27T07:17:21.116Z,99600.67
2019-04-27T07:19:49.820Z,99603.09
2019-04-27T07:22:20.027Z,99602.81
2019-04-27T07:24:49.149Z,99597.81
2019-04-27T07:27:19.196Z,99600.48
2019-04-27T07:29:49.739Z,99601.12
2019-04-27T07:32:19.290Z,99595.17
2019-04-27T07:34:49.644Z,99592.16
2019-04-27T07:37:19.556Z,99583.91
2019-04-27T07:39:49.200Z,99586.00
2019-04-27T07:42:20.809Z,99584.55
2019-04-27T07:45:05.838Z,99588.98
2019-04-27T07:47:35.472Z,99589.46
2019-04-27T07:50:05.439Z,99587.14
2019-04-27T07:52:34.602Z,99584.20
2019-04-27T07:55:04.089Z,99583.09
2019-04-27T07:57:33.601Z,99580.15
2019-04-27T08:00:06.405Z,99580.44
2019-04-27T08:02:36.018Z,99580.42
2019-04-27T08:05:09.479Z,99574.44
2019-04-27T08:07:39.126Z,99578.97
2019-04-27T08:10:09.685Z,99571.06
2019-04-27T08:12:39.304Z,99575.67
2019-04-27T08:15:09.754Z,99575.39
2019-04-27T08:17:42.604Z,99571.34
2019-04-27T08:20:10.901Z,99562.20
2019-04-27T08:22:40.914Z,99559.86
2019-04-27T08:25:10.062Z,99551.63
2019-04-27T08:27:51.951Z,99547.72
2019-04-27T08:30:43.249Z,99545.11
2019-04-27T08:33:12.293Z,99537.56
2019-04-27T08:35:40.986Z,99533.64
2019-04-27T08:38:09.715Z,99532.64
2019-04-27T08:40:39.367Z,99522.75
2019-04-27T08:43:09.207Z,99524.86
2019-04-27T08:45:39.198Z,99529.23
2019-04-27T08:48:09.288Z,99517.78
2019-04-27T08:50:41.851Z,99514.22
2019-04-27T08:53:09.994Z,99514.73
2019-04-27T08:55:39.619Z,99504.80
2019-04-27T08:58:10.091Z,99496.45
2019-04-27T09:00:39.374Z,99510.92
2019-04-27T09:03:09.508Z,99505.27
2019-04-27T09:05:39.065Z,99501.83
2019-04-27T09:08:30.258Z,99501.96
2019-04-27T09:11:18.979Z,99488.28
2019-04-27T09:14:09.019Z,99491.11
2019-04-27T09:17:00.256Z,99488.48
2019-04-27T09:19:34.454Z,99481.38
2019-04-27T09:22:13.497Z,99479.27
2019-04-27T09:24:35.347Z,99481.34
2019-04-27T09:27:04.839Z,99478.34
2019-04-27T09:29:33.504Z,99481.02
2019-04-27T09:32:02.210Z,99477.08
2019-04-27T09:34:30.808Z,99472.19
2019-04-27T09:36:59.340Z,99467.13
2019-04-27T09:39:27.934Z,99464.53
2019-04-27T09:41:57.197Z,99466.47
2019-04-27T09:44:26.709Z,99457.80
2019-04-27T09:46:56.082Z,99456.02
2019-04-27T09:49:26.313Z,99451.80
2019-04-27T09:51:55.731Z,99446.96
2019-04-27T09:54:24.366Z,99442.89
2019-04-27T09:56:52.969Z,99442.44
2019-04-27T09:59:21.553Z,99436.11
2019-04-27T10:01:50.061Z,99432.06
2019-04-27T10:04:18.817Z,99415.66
2019-04-27T10:06:48.811Z,99409.73
2019-04-27T10:09:17.677Z,99419.11
2019-04-27T10:11:46.288Z,99411.48
2019-04-27T10:14:16.318Z,99403.92
2019-04-27T10:16:46.936Z,99409.20
2019-04-27T10:19:28.125Z,99406.70
2019-04-27T10:21:46.777Z,99404.44
2019-04-27T10:24:15.638Z,99395.48
2019-04-27T10:26:44.344Z,99397.05
2019-04-27T10:29:12.996Z,99387.87
2019-04-27T10:31:41.720Z,99388.89
2019-04-27T10:34:10.230Z,99380.55
2019-04-27T10:36:38.883Z,99386.41
2019-04-27T10:39:13.424Z,99379.95
2019-04-27T10:41:42.372Z,99373.45
2019-04-27T10:44:11.254Z,99365.21
2019-04-27T10:46:39.782Z,99360.09
2019-04-27T10:49:08.455Z,99356.55
2019-04-27T10:51:36.928Z,99356.02
2019-04-27T10:54:06.137Z,99344.19
2019-04-27T10:56:36.131Z,99350.22
2019-04-27T10:59:06.506Z,99351.02
2019-04-27T11:01:36.023Z,99345.91
2019-04-27T11:04:33.395Z,99346.57
2019-04-27T11:07:07.175Z,99342.20
2019-04-27T11:09:35.801Z,99331.42
2019-04-27T11:12:04.510Z,99325.73
2019-04-27T11:14:33.206Z,99324.28
2019-04-27T11:17:02.579Z,99320.13
2019-04-27T11:19:31.294Z,99315.27
2019-04-27T11:21:59.778Z,99313.92
2019-04-27T11:24:28.278Z,99317.63
2019-04-27T11:26:56.950Z,99315.79
2019-04-27T11:29:25.700Z,99307.73
2019-04-27T11:31:56.026Z,99309.41
2019-04-27T11:34:45.901Z,99316.61
2019-04-27T11:37:17.723Z,99308.57
2019-04-27T11:39:46.649Z,99299.00
2019-04-27T11:42:15.987Z,99298.34
2019-04-27T11:44:45.083Z,99298.49
2019-04-27T11:47:13.673Z,99278.85
2019-04-27T11:49:42.298Z,99279.36
2019-04-27T11:52:10.914Z,99279.02
2019-04-27T11:54:39.516Z,99276.36
2019-04-27T11:57:08.108Z,99269.98
2019-04-27T11:59:36.713Z,99261.24
2019-04-27T12:02:05.291Z,99259.38
2019-04-27T12:04:33.899Z,99254.05
2019-04-27T12:07:02.707Z,99245.31
2019-04-27T12:09:31.394Z,99251.02
2019-04-27T12:12:12.487Z,99236.94
2019-04-27T12:14:30.486Z,99227.55
2019-04-27T12:16:59.100Z,99224.52
2019-04-27T12:19:27.722Z,99224.52
2019-04-27T12:21:56.591Z,99220.50
2019-04-27T12:24:26.716Z,99215.42
2019-04-27T12:27:18.015Z,99215.77
2019-04-27T12:30:21.107Z,99215.42
2019-04-27T12:32:49.811Z,99218.11
2019-04-27T12:35:18.644Z,99213.09
2019-04-27T12:37:47.262Z,99212.77
2019-04-27T12:40:16.739Z,99205.02
2019-04-27T12:42:45.456Z,99199.34
2019-04-27T12:45:14.244Z,99193.78
2019-04-27T12:47:42.873Z,99190.92
2019-04-27T12:50:12.502Z,99192.29
2019-04-27T12:52:42.717Z,99181.07
2019-04-27T12:55:39.763Z,99175.53
2019-04-27T12:58:27.935Z,99160.09
2019-04-27T13:00:57.306Z,99156.08
2019-04-27T13:03:26.251Z,99154.73
2019-04-27T13:05:55.277Z,99146.18
2019-04-27T13:08:25.858Z,99137.96
2019-04-27T13:10:55.392Z,99129.92
2019-04-27T13:13:26.708Z,99127.25
2019-04-27T13:15:56.275Z,99120.20
2019-04-27T13:18:25.786Z,99117.67
2019-04-27T13:20:54.473Z,99112.32
2019-04-27T13:23:23.326Z,99117.19
2019-04-27T13:25:52.047Z,99114.48
2019-04-27T13:28:20.698Z,99116.61
2019-04-27T13:30:49.361Z,99110.78
2019-04-27T13:33:17.996Z,99108.75
2019-04-27T13:35:46.621Z,99099.20
2019-04-27T13:38:17.776Z,99092.00
2019-04-27T13:41:05.729Z,99083.96
2019-04-27T13:43:36.067Z,99088.47
2019-04-27T13:46:31.136Z,99082.65
2019-04-27T13:49:37.304Z,99079.13
2019-04-27T13:52:09.496Z,99074.47
2019-04-27T13:54:38.200Z,99067.44
2019-04-27T13:57:07.588Z,99065.92
2019-04-27T13:59:36.378Z,99065.25
2019-04-27T14:02:05.053Z,99067.27
2019-04-27T14:04:33.790Z,99065.77
2019-04-27T14:07:02.437Z,99061.23
2019-04-27T14:09:31.142Z,99054.69
2019-04-27T14:12:07.032Z,99052.52
2019-04-27T14:14:35.737Z,99054.20
2019-04-27T14:17:04.541Z,99053.34
2019-04-27T14:19:33.118Z,99045.28
2019-04-27T14:22:01.808Z,99045.98
2019-04-27T14:24:42.457Z,99045.80
2019-04-27T14:27:11.172Z,99047.32
2019-04-27T14:29:39.776Z,99051.49
2019-04-27T14:32:08.741Z,99049.82
2019-04-27T14:34:37.287Z,99046.78
2019-04-27T14:37:05.910Z,99040.89
2019-04-27T14:39:34.595Z,99036.02
2019-04-27T14:42:03.537Z,99032.36
2019-04-27T14:44:32.261Z,99029.86
2019-04-27T14:47:00.948Z,99026.95
2019-04-27T14:49:29.779Z,99026.80
2019-04-27T14:51:58.560Z,99029.48
2019-04-27T14:54:28.781Z,99017.77
2019-04-27T14:56:58.957Z,99027.99
2019-04-27T14:59:27.696Z,99028.31
2019-04-27T15:01:56.290Z,99029.53
2019-04-27T15:04:24.779Z,99026.66
2019-04-27T15:06:53.418Z,99033.72
2019-04-27T15:09:23.914Z,99040.42
2019-04-27T15:11:53.649Z,99037.06
2019-04-27T15:14:23.944Z,99034.38
2019-04-27T15:16:52.802Z,99023.83
2019-04-27T15:19:29.990Z,99027.70
2019-04-27T15:22:01.100Z,99023.16
2019-04-27T15:24:31.118Z,99022.66
2019-04-27T15:27:02.144Z,99025.32
2019-04-27T15:29:32.027Z,99020.98
2019-04-27T15:32:04.171Z,99020.98
2019-04-27T15:34:45.137Z,99010.92
2019-04-27T15:37:42.475Z,99009.72
2019-04-27T15:40:28.988Z,99010.74
2019-04-27T15:43:03.977Z,99000.17
2019-04-27T15:45:32.669Z,99006.22
2019-04-27T15:48:01.305Z,99000.38
2019-04-27T15:50:32.223Z,99001.20
2019-04-27T15:53:02.868Z,98999.54
2019-04-27T15:55:35.093Z,99002.88
2019-04-27T15:58:01.777Z,98998.23
2019-04-27T16:00:30.362Z,98993.69
2019-04-27T16:02:59.013Z,98993.03
2019-04-27T16:05:30.647Z,98991.53
2019-04-27T16:08:00.999Z,98980.63
2019-04-27T16:10:32.921Z,98988.85
2019-04-27T16:13:06.439Z,98992.34
2019-04-27T16:15:29.975Z,98992.05
2019-04-27T16:17:58.745Z,98997.57
2019-04-27T16:20:32.330Z,99006.97
2019-04-27T16:23:03.114Z,99005.63
2019-04-27T16:25:31.512Z,99010.65
2019-04-27T16:27:58.913Z,99010.98
2019-04-27T16:30:28.753Z,99011.66
2019-04-27T16:32:58.358Z,99008.96
2019-04-27T16:35:28.306Z,99018.32
2019-04-27T16:38:12.591Z,99024.01
2019-04-27T16:40:54.764Z,99022.34
2019-04-27T16:43:30.009Z,99016.97
2019-04-27T16:46:09.176Z,99027.69
2019-04-27T16:48:42.206Z,99037.21
2019-04-27T16:51:13.488Z,99039.72
2019-04-27T16:53:44.641Z,99049.09
2019-04-27T16:56:20.395Z,99046.23
2019-04-27T16:58:56.501Z,99060.40
2019-04-27T17:01:28.637Z,99060.36
2019-04-27T17:03:59.328Z,99056.53
2019-04-27T17:06:30.224Z,99057.83
2019-04-27T17:09:05.738Z,99055.73
2019-04-27T17:11:30.517Z,99057.86
2019-04-27T17:14:09.462Z,99056.89
2019-04-27T17:17:10.657Z,99051.45
2019-04-27T17:19:49.908Z,99053.66
2019-04-27T17:22:18.343Z,99052.80
2019-04-27T17:24:49.314Z,99062.10
2019-04-27T17:27:22.846Z,99067.58
2019-04-27T17:29:57.999Z,99063.55
2019-04-27T17:32:38.865Z,99062.50
2019-04-27T17:35:11.766Z,99067.63
2019-04-27T17:37:38.297Z,99072.45
2019-04-27T17:40:07.500Z,99076.43
2019-04-27T17:42:36.273Z,99080.66
2019-04-27T17:45:05.360Z,99086.01
2019-04-27T17:47:33.929Z,99090.02
2019-04-27T17:50:03.417Z,99104.53
2019-04-27T17:52:32.110Z,99125.55
2019-04-27T17:55:01.688Z,99144.53
2019-04-27T17:57:30.488Z,99174.41
2019-04-27T18:00:03.116Z,99205.08
2019-04-27T18:02:33.915Z,99208.14
2019-04-27T18:05:00.468Z,99223.55
2019-04-27T18:07:30.200Z,99227.30
2019-04-27T18:09:58.787Z,99235.06
2019-04-27T18:12:28.553Z,99237.28
2019-04-27T18:14:58.151Z,99255.36
2019-04-27T18:17:28.744Z,99247.38
2019-04-27T18:20:00.288Z,99250.23
2019-04-27T18:22:36.412Z,99242.25
2019-04-27T18:25:06.665Z,99246.20
2019-04-27T18:27:58.339Z,99246.38
2019-04-27T18:30:49.505Z,99245.69
2019-04-27T18:33:18.448Z,99248.88
2019-04-27T18:35:49.021Z,99272.45
2019-04-27T18:38:17.728Z,99275.77
2019-04-27T18:40:46.402Z,99287.30
2019-04-27T18:43:15.114Z,99287.30
2019-04-27T18:45:44.881Z,99299.75
2019-04-27T18:48:20.398Z,99307.11
2019-04-27T18:51:08.638Z,99318.00
2019-04-27T18:53:37.254Z,99324.31
2019-04-27T18:56:10.129Z,99330.08
2019-04-27T18:58:36.497Z,99327.72
2019-04-27T19:01:05.096Z,99325.28
2019-04-27T19:03:33.699Z,99326.91
2019-04-27T19:06:02.411Z,99324.84
2019-04-27T19:08:31.012Z,99312.63
2019-04-27T19:11:00.388Z,99291.70
2019-04-27T19:13:29.169Z,99295.87
2019-04-27T19:15:57.872Z,99298.25
2019-04-27T19:18:28.145Z,99305.46
2019-04-27T19:20:58.440Z,99309.31
2019-04-27T19:23:28.362Z,99304.75
2019-04-27T19:26:16.612Z,99301.72
2019-04-27T19:29:04.862Z,99312.63
2019-04-27T19:31:38.274Z,99288.95
2019-04-27T19:34:06.881Z,99289.41
2019-04-27T19:36:35.493Z,99282.00
2019-04-27T19:39:06.425Z,99288.34
2019-04-27T19:41:34.960Z,99285.17
2019-04-27T19:44:03.554Z,99285.52
2019-04-27T19:46:32.071Z,99281.62
2019-04-27T19:49:00.684Z,99281.56
2019-04-27T19:51:29.487Z,99278.19
2019-04-27T19:53:58.269Z,99272.14
2019-04-27T19:56:28.325Z,99270.50
2019-04-27T19:58:59.976Z,99270.03
2019-04-27T20:01:40.096Z,99269.81
2019-04-27T20:04:27.481Z,99268.14
2019-04-27T20:06:56.081Z,99282.86
2019-04-27T20:09:50.081Z,99285.16
2019-04-27T20:12:18.641Z,99276.28
2019-04-27T20:14:56.200Z,99281.55
2019-04-27T20:17:25.755Z,99274.88
2019-04-27T20:19:55.027Z,99277.27
2019-04-27T20:22:24.819Z,99262.70
2019-04-27T20:24:53.445Z,99249.52
2019-04-27T20:27:21.949Z,99241.17
2019-04-27T20:29:50.562Z,99231.45
2019-04-27T20:32:21.375Z,99223.07
2019-04-27T20:34:51.304Z,99227.31
2019-04-27T20:37:21.031Z,99218.36
2019-04-27T20:39:51.249Z,99218.52
2019-04-27T20:42:21.081Z,99206.23
2019-04-27T20:44:51.576Z,99190.02
2019-04-27T20:47:20.777Z,99181.62
2019-04-27T20:49:49.507Z,99177.63
2019-04-27T20:52:49.633Z,99171.98
2019-04-27T20:55:18.142Z,99189.20
2019-04-27T20:57:58.811Z,99201.91
2019-04-27T21:00:19.321Z,99193.48
2019-04-27T21:03:07.967Z,99197.99
2019-04-27T21:05:52.754Z,99200.09
2019-04-27T21:08:21.954Z,99186.49
2019-04-27T21:10:51.554Z,99203.77
2019-04-27T21:13:20.131Z,99211.89
2019-04-27T21:15:50.829Z,99202.88
2019-04-27T21:18:19.233Z,99197.41
2019-04-27T21:20:47.818Z,99199.02
2019-04-27T21:23:16.389Z,99197.78
2019-04-27T21:25:45.007Z,99198.74
2019-04-27T21:28:18.561Z,99195.73
2019-04-27T21:30:43.977Z,99197.70
2019-04-27T21:33:12.473Z,99200.19
2019-04-27T21:35:41.073Z,99199.47
2019-04-27T21:38:11.540Z,99209.67
2019-04-27T21:40:40.889Z,99214.45
2019-04-27T21:43:11.258Z,99215.92
2019-04-27T21:45:41.856Z,99213.70
2019-04-27T21:48:10.995Z,99214.67
2019-04-27T21:50:41.300Z,99216.06
2019-04-27T21:53:17.389Z,99215.45
2019-04-27T21:55:58.490Z,99223.61
2019-04-27T21:58:28.839Z,99209.30
2019-04-27T22:01:07.516Z,99216.53
2019-04-27T22:03:36.103Z,99219.20
2019-04-27T22:06:04.774Z,99211.61
2019-04-27T22:08:33.371Z,99216.72
2019-04-27T22:11:02.070Z,99208.34
2019-04-27T22:13:31.147Z,99206.24
2019-04-27T22:15:59.952Z,99208.54
2019-04-27T22:18:28.574Z,99208.22
2019-04-27T22:20:57.055Z,99217.25
2019-04-27T22:23:38.329Z,99222.59
2019-04-27T22:26:06.925Z,99224.70
2019-04-27T22:28:46.190Z,99221.28
2019-04-27T22:31:05.944Z,99227.98
2019-04-27T22:33:34.534Z,99224.98
2019-04-27T22:36:03.218Z,99223.89
2019-04-27T22:38:32.705Z,99226.75
2019-04-27T22:41:21.441Z,99223.44
2019-04-27T22:44:21.605Z,99225.64
2019-04-27T22:46:50.602Z,99217.70
2019-04-27T22:49:21.022Z,99222.94
2019-04-27T22:51:51.293Z,99221.03
2019-04-27T22:54:21.745Z,99226.80
2019-04-27T22:56:51.512Z,99218.58
2019-04-27T22:59:28.377Z,99217.71
2019-04-27T23:02:21.583Z,99210.00
2019-04-27T23:04:56.147Z,99213.06
2019-04-27T23:07:24.623Z,99211.66
2019-04-27T23:09:53.210Z,99213.95
2019-04-27T23:12:23.058Z,99209.28
2019-04-27T23:14:51.795Z,99206.83
2019-04-27T23:17:31.741Z,99203.14
2019-04-27T23:20:01.413Z,99196.52
2019-04-27T23:22:31.549Z,99202.75
2019-04-27T23:25:01.076Z,99202.98
2019-04-27T23:27:31.724Z,99196.35
2019-04-27T23:30:01.442Z,99198.69
2019-04-27T23:32:42.109Z,99204.38
2019-04-27T23:35:10.905Z,99206.55
2019-04-27T23:37:39.508Z,99210.25
2019-04-27T23:40:08.503Z,99205.73
2019-04-27T23:42:37.104Z,99210.41
2019-04-27T23:45:06.275Z,99210.03
2019-04-27T23:47:34.814Z,99217.84
2019-04-27T23:50:03.846Z,99210.08
2019-04-27T23:52:50.686Z,99215.01
2019-04-27T23:55:22.390Z,99209.55
2019-04-27T23:57:50.879Z,99211.68
